Time;durP1;ratioP1;P1;durP2;ratioP2;P2;SDS_P1;SDS_P2;PMS_P1;PMS_P2;Temp;Humidity;BMP_temperature;BMP_pressure;BME280_temperature;BME280_humidity;BME280_pressure;Samples;Min_cycle;Max_cycle;Signal;HPM_P1;HPM_P2
2021/12/24 00:00:09;;;;;;;38.00;21.83;;;;;;;-1.66;100.00;98162.56;5054256;28;20060;-75
2021/12/24 00:03:06;;;;;;;36.50;22.23;;;;;;;-1.71;100.00;98156.59;5053564;28;20041;-75
2021/12/24 00:05:51;;;;;;;39.78;22.75;;;;;;;-1.69;100.00;98165.13;5053747;28;20124;-75
2021/12/24 00:08:36;;;;;;;40.60;23.95;;;;;;;-1.56;100.00;98146.31;5053606;28;20376;-75
2021/12/24 00:11:21;;;;;;;40.03;23.63;;;;;;;-1.62;100.00;98148.03;5054241;28;20044;-75
2021/12/24 00:14:07;;;;;;;36.28;21.95;;;;;;;-1.66;100.00;98131.75;5053382;28;20446;-75
2021/12/24 00:16:55;;;;;;;39.08;23.88;;;;;;;-1.66;100.00;98134.31;5054078;28;20040;-75
2021/12/24 00:19:48;;;;;;;37.63;22.00;;;;;;;-1.60;100.00;98124.03;5053464;28;20041;-75
2021/12/24 00:37:23;;;;;;;35.53;20.33;;;;;;;-1.49;100.00;98098.34;5053116;28;20040;-75
2021/12/24 00:40:18;;;;;;;35.55;20.85;;;;;;;-1.50;100.00;98097.47;5053077;28;20049;-75
2021/12/24 00:43:04;;;;;;;38.00;21.35;;;;;;;-1.50;100.00;98107.72;5052941;28;20048;-75
2021/12/24 00:45:49;;;;;;;40.15;24.80;;;;;;;-1.51;100.00;98107.75;5053722;28;20037;-75
2021/12/24 00:48:34;;;;;;;39.70;23.65;;;;;;;-1.47;100.00;98096.59;5053691;28;20063;-75
2021/12/24 00:51:29;;;;;;;42.78;23.42;;;;;;;-1.46;100.00;98104.31;5052819;28;20041;-75
2021/12/24 00:57:16;;;;;;;37.03;22.48;;;;;;;-1.33;100.00;98105.13;5052827;28;20554;-75
2021/12/24 01:00:03;;;;;;;39.15;21.55;;;;;;;-1.34;100.00;98087.97;5053320;28;20053;-75
2021/12/24 01:02:50;;;;;;;37.08;22.13;;;;;;;-1.39;100.00;98082.03;5053487;28;20074;-75
2021/12/24 01:05:36;;;;;;;38.55;21.73;;;;;;;-1.21;100.00;98081.91;5039026;28;20048;-75
2021/12/24 01:08:21;;;;;;;42.08;23.70;;;;;;;-1.18;100.00;98079.31;5052620;28;20049;-75
2021/12/24 01:11:07;;;;;;;38.60;23.45;;;;;;;-1.27;100.00;98069.13;5052601;28;20052;-75
2021/12/24 01:13:52;;;;;;;36.97;21.23;;;;;;;-1.14;100.00;98089.59;5038670;28;20380;-75
2021/12/24 01:16:44;;;;;;;31.73;19.13;;;;;;;-1.12;100.00;98083.59;5038725;28;20041;-75
2021/12/24 01:19:30;;;;;;;34.90;21.07;;;;;;;-1.16;100.00;98073.34;5038820;28;20037;-75
2021/12/24 01:25:38;;;;;;;31.08;20.13;;;;;;;-1.09;100.00;98072.44;5052468;28;20041;-75
2021/12/24 01:40:52;;;;;;;30.88;17.73;;;;;;;-0.93;100.00;98053.50;5053034;28;20503;-74
2021/12/24 01:43:36;;;;;;;28.55;17.88;;;;;;;-0.94;100.00;98036.38;5052793;28;20140;-75
2021/12/24 01:46:21;;;;;;;27.35;17.48;;;;;;;-0.98;100.00;98025.22;5051909;28;20041;-75
2021/12/24 01:49:06;;;;;;;32.38;17.73;;;;;;;-0.85;100.00;98040.56;5052141;28;20048;-75
2021/12/24 01:51:52;;;;;;;25.75;16.33;;;;;;;-0.85;100.00;98030.28;5052136;28;20097;-75
2021/12/24 01:54:39;;;;;;;23.25;15.02;;;;;;;-0.87;100.00;98009.75;5052082;28;20037;-75
2021/12/24 01:57:23;;;;;;;24.75;15.57;;;;;;;-0.84;100.00;98030.28;5038028;28;20064;-75
2021/12/24 02:00:13;;;;;;;24.00;15.30;;;;;;;-0.75;100.00;98026.78;5051741;28;20053;-75
2021/12/24 02:02:58;;;;;;;21.85;14.48;;;;;;;-0.79;100.00;98022.53;5051888;28;20068;-75
2021/12/24 02:05:44;;;;;;;22.48;14.77;;;;;;;-0.87;100.00;98014.88;5052721;28;20052;-75
2021/12/24 02:08:29;;;;;;;26.45;16.38;;;;;;;-0.76;100.00;98017.38;5037987;28;20052;-75
2021/12/24 02:11:14;;;;;;;21.90;14.55;;;;;;;-0.76;100.00;98010.50;5051824;28;20068;-75
2021/12/24 02:14:03;;;;;;;20.20;13.70;;;;;;;-0.78;100.00;98012.25;5037915;28;20105;-75
2021/12/24 02:28:41;;;;;;;23.20;13.98;;;;;;;-0.80;100.00;98005.41;5051537;28;20041;-75
2021/12/24 02:31:28;;;;;;;19.25;12.45;;;;;;;-0.73;100.00;97997.63;5051517;28;20105;-75
2021/12/24 02:34:13;;;;;;;20.42;12.88;;;;;;;-0.78;100.00;97985.66;5051618;28;20041;-75
2021/12/24 02:36:58;;;;;;;20.45;13.48;;;;;;;-0.75;100.00;97985.63;5110904;28;20053;-76
2021/12/24 02:39:42;;;;;;;19.25;13.45;;;;;;;-0.79;100.00;97978.81;5051542;28;20116;-76
2021/12/24 02:42:27;;;;;;;19.65;13.13;;;;;;;-0.76;100.00;97978.81;5051404;28;20041;-76
2021/12/24 02:45:11;;;;;;;21.70;13.25;;;;;;;-0.77;100.00;97980.53;5051386;28;20150;-76
2021/12/24 02:53:59;;;;;;;19.63;12.32;;;;;;;-0.78;100.00;97965.09;5051343;28;20507;-77
2021/12/24 02:56:52;;;;;;;18.52;11.52;;;;;;;-0.70;100.00;97968.47;5051255;28;20045;-77
2021/12/24 02:59:47;;;;;;;18.33;11.70;;;;;;;-0.76;100.00;97959.06;5039735;28;20106;-77
2021/12/24 03:02:32;;;;;;;20.23;12.75;;;;;;;-0.73;100.00;97958.22;5040731;28;20075;-77
2021/12/24 03:05:20;;;;;;;16.77;10.85;;;;;;;-0.74;100.00;97953.94;5040634;28;20050;-77
2021/12/24 03:08:04;;;;;;;19.65;12.48;;;;;;;-0.66;100.00;97967.56;5040460;28;20426;-77
2021/12/24 03:10:48;;;;;;;19.98;11.77;;;;;;;-0.78;100.00;97959.94;5054520;28;20388;-77
2021/12/24 03:13:35;;;;;;;15.20;11.07;;;;;;;-0.72;100.00;97958.19;5054655;28;20041;-77
2021/12/24 03:16:21;;;;;;;20.13;12.35;;;;;;;-0.67;100.00;97960.72;5054457;28;20033;-77
2021/12/24 03:19:08;;;;;;;21.30;13.60;;;;;;;-0.63;100.00;97956.41;5040438;28;20052;-77
2021/12/24 03:22:00;;;;;;;17.70;11.82;;;;;;;-0.65;100.00;97946.16;5040288;28;20041;-77
2021/12/24 03:24:44;;;;;;;20.23;12.95;;;;;;;-0.69;100.00;97953.88;5054276;28;20041;-77
2021/12/24 03:27:29;;;;;;;20.15;12.55;;;;;;;-0.65;100.00;97943.56;5054393;28;20445;-77
2021/12/24 03:30:13;;;;;;;19.17;12.35;;;;;;;-0.73;100.00;97940.22;5054180;28;20123;-77
2021/12/24 03:32:58;;;;;;;18.40;11.63;;;;;;;-0.85;100.00;97930.03;5054185;28;20045;-77
2021/12/24 03:35:42;;;;;;;20.48;12.88;;;;;;;-0.69;100.00;97939.31;5040162;28;20053;-77
2021/12/24 03:38:28;;;;;;;17.23;11.75;;;;;;;-0.67;100.00;97945.28;5054090;28;20037;-77
2021/12/24 03:41:12;;;;;;;18.05;12.10;;;;;;;-0.68;100.00;97948.75;5054021;28;20056;-77
2021/12/24 03:43:57;;;;;;;20.50;13.70;;;;;;;-0.74;100.00;97944.50;5054112;28;20045;-77
2021/12/24 03:49:50;;;;;;;20.42;12.23;;;;;;;-0.64;100.00;97934.97;5053873;28;20110;-77
2021/12/24 03:55:17;;;;;;;24.95;13.43;;;;;;;-0.68;100.00;97922.16;5054555;28;20037;-77
2021/12/24 03:58:01;;;;;;;23.35;12.98;;;;;;;-0.78;100.00;97905.97;5053780;28;20124;-77
2021/12/24 04:01:05;;;;;;;18.88;11.88;;;;;;;-0.64;100.00;97913.56;5053775;28;20057;-77
2021/12/24 04:03:51;;;;;;;18.45;11.63;;;;;;;-0.63;100.00;97912.69;5054290;28;20063;-77
2021/12/24 04:06:54;;;;;;;;;;;;;;;-0.60;100.00;97910.09;5054951;28;20109;-77
2021/12/24 04:10:33;;;;;;;18.98;10.95;;;;;;;-0.64;100.00;97903.28;5013052;28;20279;-78
2021/12/24 04:13:46;;;;;;;18.45;10.27;;;;;;;-0.55;100.00;97916.88;5043396;28;20071;-77
2021/12/24 04:16:33;;;;;;;17.50;10.65;;;;;;;-0.60;100.00;97913.50;5039781;28;20041;-77
2021/12/24 04:25:40;;;;;;;24.02;13.20;;;;;;;-0.63;100.00;97908.38;5053497;28;20454;-77
2021/12/24 04:28:24;;;;;;;24.70;13.45;;;;;;;-0.56;100.00;97911.75;5053331;28;20045;-77
2021/12/24 04:31:09;;;;;;;21.52;12.32;;;;;;;-0.66;100.00;97911.00;5053288;28;20041;-77
2021/12/24 04:33:59;;;;;;;18.52;10.95;;;;;;;-0.67;100.00;97909.28;5039274;28;20362;-77
2021/12/24 04:52:11;;;;;;;26.35;14.18;;;;;;;-0.48;100.00;97910.81;5052992;28;20407;-77
2021/12/24 05:01:22;;;;;;;25.15;13.63;;;;;;;-0.53;100.00;97902.28;5052643;28;19929;-79
2021/12/24 05:04:09;;;;;;;31.42;15.27;;;;;;;-0.39;100.00;97912.44;5052785;28;20041;-79
2021/12/24 05:07:03;;;;;;;23.48;12.70;;;;;;;-0.42;100.00;97896.16;5052631;28;20457;-79
2021/12/24 05:09:48;;;;;;;25.27;13.88;;;;;;;-0.39;100.00;97904.72;5038726;28;20041;-79
2021/12/24 05:12:36;;;;;;;18.65;11.75;;;;;;;-0.39;100.00;97909.84;5052687;28;20052;-79
2021/12/24 05:15:21;;;;;;;24.42;12.48;;;;;;;-0.42;100.00;97915.03;5052543;28;20388;-79
2021/12/24 05:21:32;;;;;;;20.98;12.05;;;;;;;-0.42;100.00;97907.31;5053272;28;20430;-79
2021/12/24 05:21:54;;;;;;;19.70;11.32;;;;;;;-0.35;100.00;97919.25;5051975;28;20045;-79
2021/12/24 05:24:40;;;;;;;18.48;11.52;;;;;;;-0.32;100.00;97906.34;5052534;28;20041;-80
2021/12/24 05:27:25;;;;;;;20.05;11.38;;;;;;;-0.38;100.00;97903.00;5038617;28;20120;-80
2021/12/24 05:30:10;;;;;;;17.38;10.88;;;;;;;-0.37;100.00;97908.09;5052441;28;20045;-80
2021/12/24 05:32:54;;;;;;;17.83;10.18;;;;;;;-0.40;100.00;97894.41;5052466;28;20073;-81
2021/12/24 05:35:40;;;;;;;18.90;10.65;;;;;;;-0.31;100.00;97900.31;5053284;28;20044;-82
2021/12/24 05:38:27;;;;;;;18.60;11.25;;;;;;;-0.32;100.00;97897.78;5024797;28;20053;-82
2021/12/24 05:41:13;;;;;;;17.13;9.93;;;;;;;-0.30;100.00;97901.16;5052229;28;20354;-83
2021/12/24 05:43:59;;;;;;;17.25;10.98;;;;;;;-0.26;100.00;97903.69;5038337;28;20124;-83
2021/12/24 05:46:45;;;;;;;18.02;11.07;;;;;;;-0.24;100.00;97899.38;5038382;28;20053;-84
2021/12/24 05:49:48;;;;;;;19.67;11.30;;;;;;;-0.23;100.00;97892.50;5053030;28;20346;-83
2021/12/24 05:52:52;;;;;;;17.95;10.63;;;;;;;-0.24;100.00;97889.06;5052284;28;20097;-83
2021/12/24 05:56:09;;;;;;;23.35;12.32;;;;;;;-0.25;100.00;97889.09;5035413;28;20063;-84
2021/12/24 05:58:55;;;;;;;19.75;12.15;;;;;;;-0.22;100.00;97872.78;5038104;28;20102;-83
2021/12/24 06:01:40;;;;;;;18.83;13.07;;;;;;;-0.23;100.00;97897.63;5038007;28;20048;-83
2021/12/24 06:04:24;;;;;;;18.73;11.93;;;;;;;-0.25;100.00;97889.09;5052632;28;20049;-84
2021/12/24 06:07:08;;;;;;;18.25;11.23;;;;;;;-0.29;100.00;97885.72;5052642;28;20070;-83
2021/12/24 06:09:53;;;;;;;19.90;11.73;;;;;;;-0.21;100.00;97887.34;5052628;28;20037;-83
2021/12/24 06:12:37;;;;;;;20.13;12.80;;;;;;;-0.25;100.00;97879.66;5051842;28;20045;-82
2021/12/24 06:15:25;;;;;;;18.35;11.65;;;;;;;-0.17;100.00;97878.69;5051749;28;20530;-82
2021/12/24 06:18:13;;;;;;;20.30;11.45;;;;;;;-0.23;100.00;97884.78;5051779;28;20048;-82
2021/12/24 06:21:06;;;;;;;26.02;13.73;;;;;;;-0.19;100.00;97875.31;5051777;28;20163;-82
2021/12/24 06:23:51;;;;;;;20.73;12.48;;;;;;;-0.15;100.00;97887.28;5051821;28;20388;-82
2021/12/24 06:26:35;;;;;;;25.23;15.55;;;;;;;-0.17;100.00;97889.00;5052454;28;20064;-82
2021/12/24 06:29:20;;;;;;;18.17;11.15;;;;;;;-0.14;100.00;97883.81;5051577;28;20041;-82
2021/12/24 06:32:05;;;;;;;17.27;11.00;;;;;;;-0.10;100.00;97868.34;5051507;28;20056;-81
2021/12/24 06:34:50;;;;;;;14.85;9.25;;;;;;;-0.07;100.00;97873.41;5040418;28;20041;-81
2021/12/24 06:37:36;;;;;;;17.88;10.68;;;;;;;-0.03;100.00;97872.53;5055049;28;20041;-81
2021/12/24 06:40:21;;;;;;;17.08;10.43;;;;;;;-0.02;100.00;97869.06;5055718;28;20077;-81
2021/12/24 06:43:06;;;;;;;18.00;10.98;;;;;;;-0.07;100.00;97852.81;5055578;28;20167;-81
2021/12/24 06:45:51;;;;;;;17.73;9.70;;;;;;;0.01;100.00;97867.34;5055617;28;20047;-82
2021/12/24 06:48:35;;;;;;;15.77;10.10;;;;;;;-0.02;100.00;97868.22;5054817;28;20106;-82
2021/12/24 06:51:20;;;;;;;15.38;9.10;;;;;;;-0.01;100.00;97864.75;5055621;28;20112;-82
2021/12/24 06:54:05;;;;;;;16.08;10.60;;;;;;;0.08;100.00;97876.66;5040731;28;20093;-82
2021/12/24 06:56:51;;;;;;;27.08;12.35;;;;;;;0.02;100.00;97875.03;5054872;28;20044;-82
2021/12/24 06:59:35;;;;;;;21.85;12.68;;;;;;;0.03;100.00;97886.16;5054867;28;20060;-81
2021/12/24 07:02:20;;;;;;;23.27;14.05;;;;;;;0.02;100.00;97880.16;5054535;28;20098;-81
2021/12/24 07:05:04;;;;;;;25.88;17.17;;;;;;;0.01;100.00;97883.63;5040642;28;20435;-82
2021/12/24 07:07:49;;;;;;;25.23;18.27;;;;;;;0.02;100.00;97882.75;5054257;28;20327;-82
2021/12/24 07:10:33;;;;;;;29.75;19.50;;;;;;;0.13;100.00;97883.47;5053471;28;20041;-82
2021/12/24 07:13:18;;;;;;;34.03;22.67;;;;;;;0.05;100.00;97880.13;5052673;28;20044;-81
2021/12/24 07:16:03;;;;;;;29.30;19.70;;;;;;;0.16;100.00;97893.72;5052741;28;20074;-81
2021/12/24 07:18:48;;;;;;;31.63;19.83;;;;;;;0.15;100.00;97888.56;5052722;28;20045;-82
2021/12/24 07:21:35;;;;;;;37.67;19.15;;;;;;;0.21;100.00;97883.34;5052677;28;20044;-81
2021/12/24 07:24:19;;;;;;;42.38;22.30;;;;;;;0.18;100.00;97884.22;5052740;28;20045;-82
2021/12/24 07:27:04;;;;;;;57.13;28.88;;;;;;;0.22;100.00;97887.63;5054261;28;20128;-81
2021/12/24 07:29:48;;;;;;;51.10;28.52;;;;;;;0.20;100.00;97884.22;5053382;28;20041;-80
2021/12/24 07:32:33;;;;;;;42.15;24.48;;;;;;;0.27;100.00;97882.41;5053144;28;20049;-81
2021/12/24 07:35:18;;;;;;;41.65;22.90;;;;;;;0.33;100.00;97878.03;5052263;28;20033;-81
2021/12/24 07:38:02;;;;;;;34.15;19.80;;;;;;;0.36;100.00;97885.72;5052237;28;20044;-81
2021/12/24 07:40:47;;;;;;;40.97;23.02;;;;;;;0.44;100.00;97883.00;5052558;28;20066;-81
2021/12/24 07:43:32;;;;;;;40.47;21.25;;;;;;;0.36;100.00;97883.13;5053788;28;20041;-80
2021/12/24 07:46:18;;;;;;;43.08;22.35;;;;;;;0.37;100.00;97871.94;5054714;28;20453;-80
2021/12/24 07:49:17;;;;;;;56.55;27.67;;;;;;;0.47;100.00;97880.38;5054026;28;20115;-81
2021/12/24 07:54:50;;;;;;;209.60;104.00;;;;;;;0.47;100.00;97865.78;5053843;28;20079;-82
2021/12/24 07:57:36;;;;;;;93.75;49.15;;;;;;;0.46;100.00;97856.34;5053835;28;20068;-82
2021/12/24 08:00:26;;;;;;;46.00;27.10;;;;;;;0.42;100.00;97852.13;5054221;28;20057;-82
2021/12/24 08:03:11;;;;;;;45.17;23.58;;;;;;;0.51;100.00;97855.44;5039571;28;20045;-79
2021/12/24 08:05:55;;;;;;;51.47;26.02;;;;;;;0.46;100.00;97842.63;5025638;28;20493;-80
2021/12/24 08:08:40;;;;;;;58.40;29.83;;;;;;;0.43;100.00;97852.97;5039786;28;20040;-78
2021/12/24 08:11:24;;;;;;;49.15;26.02;;;;;;;0.55;100.00;97844.19;5053566;28;20052;-79
2021/12/24 08:14:09;;;;;;;67.05;31.83;;;;;;;0.57;100.00;97842.44;5039473;28;20045;-79
2021/12/24 08:16:53;;;;;;;47.08;25.45;;;;;;;0.69;100.00;97852.56;5053570;28;20041;-79
2021/12/24 08:19:38;;;;;;;56.05;31.55;;;;;;;0.73;100.00;97850.78;5054169;28;20056;-79
2021/12/24 08:22:23;;;;;;;54.63;36.58;;;;;;;0.64;100.00;97838.88;5053310;28;20041;-78
2021/12/24 08:25:09;;;;;;;77.65;52.92;;;;;;;0.74;100.00;97832.69;5054083;28;20041;-78
2021/12/24 08:27:54;;;;;;;75.85;45.15;;;;;;;0.80;100.00;97826.59;5053347;28;20048;-78
2021/12/24 08:30:39;;;;;;;113.25;57.95;;;;;;;0.83;100.00;97818.81;5054057;28;20037;-78
2021/12/24 08:33:23;;;;;;;72.00;38.33;;;;;;;0.89;100.00;97834.19;5053927;28;20045;-78
2021/12/24 08:36:09;;;;;;;50.95;25.58;;;;;;;0.90;100.00;97833.28;5053195;28;20127;-78
2021/12/24 08:38:55;;;;;;;46.83;25.15;;;;;;;0.85;100.00;97829.97;5053239;28;20405;-78
2021/12/24 08:41:39;;;;;;;51.22;26.77;;;;;;;0.92;100.00;97826.38;5052795;28;20053;-78
2021/12/24 08:44:27;;;;;;;52.85;21.92;;;;;;;0.92;100.00;97822.06;5053084;28;20040;-78
2021/12/24 08:47:12;;;;;;;61.40;22.27;;;;;;;0.99;100.00;97817.66;5053677;28;20362;-78
2021/12/24 08:49:57;;;;;;;64.40;28.73;;;;;;;1.11;100.00;97812.28;5052695;28;20450;-79
2021/12/24 08:52:46;;;;;;;65.88;28.20;;;;;;;1.17;100.00;97806.16;5053843;28;20049;-79
2021/12/24 08:55:31;;;;;;;57.53;25.77;;;;;;;1.22;100.00;97818.97;5053328;28;20044;-80
2021/12/24 08:58:15;;;;;;;83.53;30.27;;;;;;;1.18;100.00;97810.44;5052814;28;20037;-80
2021/12/24 09:01:00;;;;;;;114.38;40.60;;;;;;;1.18;100.00;97810.44;5053429;28;20052;-79
2021/12/24 09:03:45;;;;;;;82.75;32.85;;;;;;;1.11;100.00;97811.44;5053348;28;20448;-79
2021/12/24 09:06:29;;;;;;;78.20;34.40;;;;;;;1.20;100.00;97820.72;5053337;28;20045;-80
2021/12/24 09:09:14;;;;;;;64.15;30.05;;;;;;;1.10;100.00;97815.72;5053324;28;20120;-79
2021/12/24 09:11:58;;;;;;;68.50;32.60;;;;;;;1.24;100.00;97814.63;5051793;28;20438;-78
2021/12/24 09:14:43;;;;;;;50.85;26.48;;;;;;;1.34;100.00;97819.56;5050423;28;20041;-78
2021/12/24 09:17:28;;;;;;;56.65;31.00;;;;;;;1.43;100.00;97821.13;5050404;28;20044;-78
2021/12/24 09:20:24;;;;;;;52.38;29.08;;;;;;;1.47;100.00;97812.44;5050422;28;20741;-78
2021/12/24 09:23:10;;;;;;;46.65;26.50;;;;;;;1.38;100.00;97816.03;5051076;28;20427;-78
2021/12/24 09:25:55;;;;;;;45.40;22.85;;;;;;;1.37;100.00;97806.63;5051127;28;20045;-78
2021/12/24 09:28:40;;;;;;;42.58;21.77;;;;;;;1.46;100.00;97808.16;5051302;28;20041;-78
2021/12/24 09:31:25;;;;;;;51.70;24.58;;;;;;;1.48;100.00;97811.56;5142360;27;20038;-79
2021/12/24 09:34:09;;;;;;;41.75;21.10;;;;;;;1.60;100.00;97806.16;5127332;27;20054;-79
2021/12/24 09:36:54;;;;;;;35.67;18.77;;;;;;;1.51;100.00;97796.00;5154651;27;20494;-80
2021/12/24 09:39:39;;;;;;;31.20;16.98;;;;;;;1.49;100.00;97800.34;5155275;27;20043;-80
2021/12/24 09:42:24;;;;;;;32.13;17.65;;;;;;;1.56;100.00;97794.19;5155262;27;20039;-80
2021/12/24 09:45:11;;;;;;;26.02;17.15;;;;;;;1.58;100.00;97795.00;5155380;27;20035;-80
2021/12/24 09:47:55;;;;;;;30.17;18.83;;;;;;;1.48;100.00;97790.06;5156193;27;20118;-83
2021/12/24 09:50:40;;;;;;;37.30;18.52;;;;;;;1.58;100.00;97792.41;5141534;27;20043;-83
2021/12/24 09:53:24;;;;;;;31.67;17.83;;;;;;;1.62;100.00;97780.28;5157347;27;20064;-83
2021/12/24 09:56:08;;;;;;;26.42;14.35;;;;;;;1.68;100.00;97784.47;5142019;27;20043;-84
2021/12/24 09:58:53;;;;;;;28.98;16.75;;;;;;;1.71;100.00;97780.09;5157095;27;20074;-83
2021/12/24 10:01:42;;;;;;;28.88;15.05;;;;;;;1.72;100.00;97776.63;5157568;27;20348;-83
2021/12/24 10:04:32;;;;;;;30.08;15.77;;;;;;;1.70;100.00;97768.09;5157468;27;20326;-84
2021/12/24 10:07:17;;;;;;;28.23;15.90;;;;;;;1.82;100.00;97769.53;5158240;27;20034;-84
2021/12/24 10:10:07;;;;;;;24.30;14.60;;;;;;;2.06;100.00;97768.16;5162134;27;20114;-84
2021/12/24 10:12:53;;;;;;;27.92;15.55;;;;;;;2.04;100.00;97764.72;5161957;27;20111;-84
2021/12/24 10:16:22;;;;;;;26.75;15.85;;;;;;;1.89;100.00;97755.63;5161033;27;20459;-84
2021/12/24 10:19:08;;;;;;;31.95;19.98;;;;;;;1.62;100.00;97757.06;5097051;28;20430;-84
2021/12/24 10:21:59;;;;;;;40.10;23.50;;;;;;;1.69;100.00;97748.34;5161141;27;20094;-84
2021/12/24 10:24:57;;;;;;;37.08;22.95;;;;;;;1.88;100.00;97741.00;5160607;27;20043;-84
2021/12/24 10:27:43;;;;;;;37.45;21.23;;;;;;;2.02;100.00;97748.44;5160732;27;20326;-85
2021/12/24 10:30:31;;;;;;;30.20;18.25;;;;;;;2.06;100.00;97742.31;5160701;27;20035;-84
2021/12/24 10:33:16;;;;;;;28.83;16.60;;;;;;;2.13;100.00;97735.28;5161488;27;20129;-84
2021/12/24 10:36:02;;;;;;;27.77;15.73;;;;;;;2.05;100.00;97743.22;5146519;27;20045;-84
2021/12/24 10:38:54;;;;;;;33.22;16.83;;;;;;;2.23;100.00;97742.75;5160762;27;20130;-84
2021/12/24 10:41:43;;;;;;;26.38;15.02;;;;;;;2.03;100.00;97743.22;5146188;27;20039;-84
2021/12/24 10:44:31;;;;;;;38.58;21.40;;;;;;;2.00;100.00;97735.56;5160993;27;20039;-83
2021/12/24 10:47:16;;;;;;;47.92;23.95;;;;;;;2.12;100.00;97736.16;5146216;27;20047;-83
2021/12/24 10:53:20;;;;;;;31.35;17.63;;;;;;;2.24;100.00;97736.72;5161587;27;20393;-82
2021/12/24 10:56:06;;;;;;;24.65;14.63;;;;;;;2.20;100.00;97732.50;5160994;27;20039;-83
2021/12/24 10:58:51;;;;;;;22.85;13.57;;;;;;;2.21;100.00;97725.59;5145727;27;20480;-83
2021/12/24 11:01:35;;;;;;;20.50;12.68;;;;;;;2.27;100.00;97718.53;5160292;27;20050;-83
2021/12/24 11:04:36;;;;;;;23.17;14.43;;;;;;;2.27;100.00;97715.09;5161335;27;20049;-82
2021/12/24 11:07:31;;;;;;;22.27;14.55;;;;;;;2.12;100.00;97713.75;5160021;27;20045;-82
2021/12/24 11:10:19;;;;;;;22.02;13.02;;;;;;;2.27;100.00;97717.69;5160351;27;20103;-82
2021/12/24 11:13:09;;;;;;;22.90;15.02;;;;;;;2.26;100.00;97711.69;5159754;27;20062;-82
2021/12/24 11:15:53;;;;;;;33.42;18.02;;;;;;;2.13;100.00;97712.88;5160233;27;20031;-82
2021/12/24 11:18:46;;;;;;;30.20;19.85;;;;;;;2.28;100.00;97722.84;5160431;27;20047;-82
2021/12/24 11:21:32;;;;;;;25.77;17.35;;;;;;;2.23;100.00;97704.00;5160224;27;20034;-82
2021/12/24 11:24:17;;;;;;;19.45;13.38;;;;;;;2.32;100.00;97690.00;5160504;27;20047;-82
2021/12/24 11:27:01;;;;;;;18.05;10.63;;;;;;;2.36;100.00;97709.72;5160004;27;20039;-82
2021/12/24 11:29:46;;;;;;;23.08;11.70;;;;;;;2.17;100.00;97695.56;5159432;27;20171;-81
2021/12/24 11:32:31;;;;;;;21.52;13.02;;;;;;;2.22;100.00;97694.56;5159330;27;20134;-82
2021/12/24 11:35:17;;;;;;;22.98;12.75;;;;;;;2.23;100.00;97693.66;5159259;27;20070;-82
2021/12/24 11:38:02;;;;;;;25.20;12.00;;;;;;;2.23;100.00;97688.50;5159184;27;20329;-81
2021/12/24 11:40:49;;;;;;;19.17;12.38;;;;;;;2.32;100.00;97685.69;5159693;27;20034;-82
2021/12/24 11:43:37;;;;;;;19.10;12.20;;;;;;;2.26;100.00;97682.41;5160261;27;20065;-82
2021/12/24 11:46:26;;;;;;;21.70;12.07;;;;;;;2.21;100.00;97692.00;5159384;27;20053;-82
2021/12/24 11:49:11;;;;;;;31.52;18.23;;;;;;;2.16;100.00;97691.28;5158960;27;20039;-82
2021/12/24 11:51:55;;;;;;;33.25;18.00;;;;;;;2.10;100.00;97682.78;5159916;27;20425;-82
2021/12/24 11:54:39;;;;;;;29.40;14.98;;;;;;;2.04;100.00;97666.59;5159305;27;20035;-81
2021/12/24 11:57:24;;;;;;;21.30;12.43;;;;;;;1.97;100.00;97675.41;5159646;27;20042;-82
2021/12/24 12:00:11;;;;;;;19.88;10.10;;;;;;;2.05;100.00;97661.41;5158933;27;20054;-81
2021/12/24 12:02:55;;;;;;;18.88;10.80;;;;;;;2.15;100.00;97671.53;5144327;27;20031;-81
2021/12/24 12:05:41;;;;;;;27.70;16.42;;;;;;;2.27;100.00;97666.03;5159976;27;20039;-81
2021/12/24 12:08:25;;;;;;;18.08;10.85;;;;;;;2.27;100.00;97659.13;5159673;27;20039;-81
2021/12/24 12:11:13;;;;;;;17.70;10.93;;;;;;;2.23;100.00;97660.09;5159257;27;20378;-81
2021/12/24 12:14:01;;;;;;;20.08;11.88;;;;;;;2.17;100.00;97652.50;5159487;27;20053;-81
2021/12/24 12:16:49;;;;;;;26.23;16.52;;;;;;;2.20;100.00;97655.00;5158548;27;20051;-81
2021/12/24 12:19:45;;;;;;;33.65;21.10;;;;;;;2.21;100.00;97650.69;5159196;27;20042;-81
2021/12/24 12:25:36;;;;;;;76.93;39.97;;;;;;;2.07;100.00;97641.53;5159039;27;20349;-80
2021/12/24 12:28:26;;;;;;;252.13;106.82;;;;;;;2.06;100.00;97633.84;5143881;27;20047;-80
2021/12/24 12:31:19;;;;;;;209.80;94.28;;;;;;;2.03;100.00;97631.34;5157249;27;20039;-80
2021/12/24 12:34:47;;;;;;;171.93;77.63;;;;;;;2.07;100.00;97628.63;5158047;27;20108;-80
2021/12/24 12:37:40;;;;;;;159.07;75.15;;;;;;;2.00;100.00;97619.34;5158991;27;20043;-80
2021/12/24 12:40:32;;;;;;;131.85;59.97;;;;;;;1.99;100.00;97622.00;5158701;27;20042;-79
2021/12/24 12:43:19;;;;;;;86.97;48.35;;;;;;;1.94;100.00;97618.66;5158859;27;20425;-79
2021/12/24 12:46:05;;;;;;;86.70;49.03;;;;;;;2.00;100.00;97623.69;5143327;27;20043;-79
2021/12/24 12:48:53;;;;;;;56.97;34.88;;;;;;;1.96;100.00;97622.06;5157813;27;20348;-78
2021/12/24 12:51:49;;;;;;;65.53;37.42;;;;;;;1.93;100.00;97617.81;5158263;27;20039;-79
2021/12/24 12:54:55;;;;;;;75.95;40.30;;;;;;;1.95;100.00;97618.66;5158537;27;20046;-78
2021/12/24 12:57:40;;;;;;;79.95;41.05;;;;;;;1.81;100.00;97623.28;5158100;27;20121;-78
2021/12/24 13:00:27;;;;;;;69.55;41.95;;;;;;;1.87;100.00;97623.13;5157470;27;20070;-78
2021/12/24 13:03:12;;;;;;;50.30;32.63;;;;;;;1.81;100.00;97629.28;5157740;27;20149;-78
2021/12/24 13:06:05;;;;;;;32.10;20.33;;;;;;;1.79;100.00;97625.91;5157970;27;20039;-78
2021/12/24 13:08:50;;;;;;;24.45;15.77;;;;;;;1.92;100.00;97617.84;5158391;27;20046;-78
2021/12/24 13:11:39;;;;;;;26.15;16.08;;;;;;;1.83;100.00;97624.94;5142766;27;20049;-78
2021/12/24 13:14:27;;;;;;;29.92;19.88;;;;;;;1.85;100.00;97615.44;5158034;27;20117;-77
2021/12/24 13:20:10;;;;;;;33.90;19.27;;;;;;;1.82;100.00;97609.47;5157387;27;20034;-77
2021/12/24 13:22:55;;;;;;;30.10;16.48;;;;;;;1.87;100.00;97623.97;5156596;27;20088;-77
2021/12/24 13:25:40;;;;;;;26.83;16.08;;;;;;;1.84;100.00;97608.56;5156492;27;20058;-77
2021/12/24 13:28:24;;;;;;;27.60;16.02;;;;;;;1.90;100.00;97615.31;5155398;27;20050;-77
2021/12/24 13:31:14;;;;;;;25.42;15.70;;;;;;;1.84;100.00;97607.72;5141376;27;20054;-77
2021/12/24 13:33:59;;;;;;;28.50;16.77;;;;;;;1.82;100.00;97618.09;5156362;27;20060;-77
2021/12/24 13:36:44;;;;;;;30.27;18.30;;;;;;;1.79;100.00;97618.16;5156646;27;20039;-77
2021/12/24 13:39:29;;;;;;;30.48;17.55;;;;;;;1.76;100.00;97607.06;5158272;27;20417;-77
2021/12/24 13:42:13;;;;;;;37.25;19.63;;;;;;;1.84;100.00;97620.63;5155369;27;20378;-77
2021/12/24 13:45:01;;;;;;;40.03;20.05;;;;;;;1.82;100.00;97625.84;5154962;27;20042;-77
2021/12/24 13:47:55;;;;;;;55.85;27.40;;;;;;;1.85;100.00;97614.56;5155375;27;20067;-76
2021/12/24 13:56:51;;;;;;;67.95;39.03;;;;;;;1.89;100.00;97598.13;5156981;27;20049;-76
2021/12/24 13:59:36;;;;;;;33.38;19.08;;;;;;;1.92;100.00;97592.03;5157278;27;20360;-77
2021/12/24 14:02:21;;;;;;;45.22;18.98;;;;;;;1.92;100.00;97589.44;5157872;27;20095;-76
2021/12/24 14:05:05;;;;;;;38.65;21.10;;;;;;;2.01;100.00;97592.63;5156799;27;20038;-76
2021/12/24 14:08:17;;;;;;;49.83;31.50;;;;;;;2.05;100.00;97589.13;5158039;27;20135;-76
2021/12/24 14:11:07;;;;;;;68.07;44.38;;;;;;;2.16;100.00;97593.16;5157336;27;20043;-76
2021/12/24 14:13:57;;;;;;;36.60;20.27;;;;;;;2.24;100.00;97586.03;5156643;27;20046;-76
2021/12/24 14:19:36;;;;;;;36.38;19.00;;;;;;;2.33;100.00;97585.78;5157337;27;20034;-76
2021/12/24 14:22:27;;;;;;;35.60;18.20;;;;;;;2.38;100.00;97593.41;5156298;27;20046;-76
2021/12/24 14:25:15;;;;;;;131.00;54.20;;;;;;;2.38;100.00;97589.09;5156563;27;20034;-76
2021/12/24 14:27:59;;;;;;;172.95;67.03;;;;;;;2.50;100.00;97593.94;5156530;27;20035;-76
2021/12/24 14:30:44;;;;;;;210.98;81.43;;;;;;;2.44;100.00;97585.47;5157775;27;20039;-76
2021/12/24 14:33:35;;;;;;;154.40;59.65;;;;;;;2.52;100.00;97579.22;5157247;27;20103;-76